sensor_id;sensor_type;location;lat;lon;timestamp;P1;durP1;ratioP1;P2;durP2;ratioP2
4317;SDS011;2172;53.576;9.934;2023-05-19T00:01:29;7.10;;;6.13;;
4317;SDS011;2172;53.576;9.934;2023-05-19T00:03:57;11.03;;;6.67;;
4317;SDS011;2172;53.576;9.934;2023-05-19T00:06:27;10.40;;;6.07;;
4317;SDS011;2172;53.576;9.934;2023-05-19T00:09:00;10.83;;;6.37;;
4317;SDS011;2172;53.576;9.934;2023-05-19T00:11:28;9.70;;;7.07;;
4317;SDS011;2172;53.576;9.934;2023-05-19T00:13:57;9.70;;;6.87;;
4317;SDS011;2172;53.576;9.934;2023-05-19T00:16:26;12.90;;;6.67;;
4317;SDS011;2172;53.576;9.934;2023-05-19T00:18:56;11.17;;;6.07;;
4317;SDS011;2172;53.576;9.934;2023-05-19T00:21:25;9.30;;;6.10;;
4317;SDS011;2172;53.576;9.934;2023-05-19T00:23:52;8.20;;;5.80;;
4317;SDS011;2172;53.576;9.934;2023-05-19T00:26:22;11.63;;;6.83;;
4317;SDS011;2172;53.576;9.934;2023-05-19T00:29:00;10.43;;;5.93;;
4317;SDS011;2172;53.576;9.934;2023-05-19T00:31:27;8.60;;;5.80;;
4317;SDS011;2172;53.576;9.934;2023-05-19T00:33:55;10.40;;;6.40;;
4317;SDS011;2172;53.576;9.934;2023-05-19T00:36:24;10.43;;;7.07;;
4317;SDS011;2172;53.576;9.934;2023-05-19T00:38:51;10.10;;;6.20;;
4317;SDS011;2172;53.576;9.934;2023-05-19T00:41:19;11.10;;;5.90;;
4317;SDS011;2172;53.576;9.934;2023-05-19T00:43:48;11.00;;;7.33;;
4317;SDS011;2172;53.576;9.934;2023-05-19T00:46:17;10.47;;;7.27;;
4317;SDS011;2172;53.576;9.934;2023-05-19T00:48:46;10.70;;;5.93;;
4317;SDS011;2172;53.576;9.934;2023-05-19T00:51:13;9.90;;;6.90;;
4317;SDS011;2172;53.576;9.934;2023-05-19T00:53:41;10.83;;;7.87;;
4317;SDS011;2172;53.576;9.934;2023-05-19T00:56:12;10.87;;;7.60;;
4317;SDS011;2172;53.576;9.934;2023-05-19T00:58:42;10.30;;;7.30;;
4317;SDS011;2172;53.576;9.934;2023-05-19T01:01:09;10.30;;;7.13;;
4317;SDS011;2172;53.576;9.934;2023-05-19T01:03:41;9.47;;;6.53;;
4317;SDS011;2172;53.576;9.934;2023-05-19T01:06:11;10.90;;;6.00;;
4317;SDS011;2172;53.576;9.934;2023-05-19T01:08:39;8.80;;;6.80;;
4317;SDS011;2172;53.576;9.934;2023-05-19T01:11:06;11.53;;;6.27;;
4317;SDS011;2172;53.576;9.934;2023-05-19T01:13:35;9.80;;;6.00;;
4317;SDS011;2172;53.576;9.934;2023-05-19T01:16:04;7.30;;;6.20;;
4317;SDS011;2172;53.576;9.934;2023-05-19T01:18:42;10.00;;;6.20;;
4317;SDS011;2172;53.576;9.934;2023-05-19T01:21:25;7.33;;;5.87;;
4317;SDS011;2172;53.576;9.934;2023-05-19T01:24:12;10.63;;;5.70;;
4317;SDS011;2172;53.576;9.934;2023-05-19T01:27:15;8.10;;;6.47;;
4317;SDS011;2172;53.576;9.934;2023-05-19T01:32:54;9.87;;;5.43;;
4317;SDS011;2172;53.576;9.934;2023-05-19T01:35:24;13.40;;;5.50;;
4317;SDS011;2172;53.576;9.934;2023-05-19T01:37:53;6.33;;;5.30;;
4317;SDS011;2172;53.576;9.934;2023-05-19T01:40:22;12.47;;;6.37;;
4317;SDS011;2172;53.576;9.934;2023-05-19T01:42:50;8.97;;;6.00;;
4317;SDS011;2172;53.576;9.934;2023-05-19T01:45:19;8.90;;;5.60;;
4317;SDS011;2172;53.576;9.934;2023-05-19T01:47:52;9.40;;;5.60;;
4317;SDS011;2172;53.576;9.934;2023-05-19T01:50:21;8.07;;;6.37;;
4317;SDS011;2172;53.576;9.934;2023-05-19T01:52:48;13.20;;;6.40;;
4317;SDS011;2172;53.576;9.934;2023-05-19T01:55:16;8.50;;;6.30;;
4317;SDS011;2172;53.576;9.934;2023-05-19T01:57:46;9.70;;;6.23;;
4317;SDS011;2172;53.576;9.934;2023-05-19T02:00:22;6.50;;;5.80;;
4317;SDS011;2172;53.576;9.934;2023-05-19T02:02:58;9.20;;;5.47;;
4317;SDS011;2172;53.576;9.934;2023-05-19T02:05:33;7.30;;;6.23;;
4317;SDS011;2172;53.576;9.934;2023-05-19T02:08:05;10.53;;;6.10;;
4317;SDS011;2172;53.576;9.934;2023-05-19T02:10:39;9.30;;;6.10;;
4317;SDS011;2172;53.576;9.934;2023-05-19T02:13:07;9.57;;;6.50;;
4317;SDS011;2172;53.576;9.934;2023-05-19T02:15:39;7.10;;;5.80;;
4317;SDS011;2172;53.576;9.934;2023-05-19T02:18:09;7.80;;;5.97;;
4317;SDS011;2172;53.576;9.934;2023-05-19T02:20:37;11.90;;;5.60;;
4317;SDS011;2172;53.576;9.934;2023-05-19T02:23:06;11.80;;;6.20;;
4317;SDS011;2172;53.576;9.934;2023-05-19T02:25:34;8.83;;;6.00;;
4317;SDS011;2172;53.576;9.934;2023-05-19T02:28:01;10.20;;;5.87;;
4317;SDS011;2172;53.576;9.934;2023-05-19T02:30:29;9.53;;;5.50;;
4317;SDS011;2172;53.576;9.934;2023-05-19T02:32:58;9.30;;;6.23;;
4317;SDS011;2172;53.576;9.934;2023-05-19T02:35:27;10.10;;;5.70;;
4317;SDS011;2172;53.576;9.934;2023-05-19T02:37:55;8.30;;;5.83;;
4317;SDS011;2172;53.576;9.934;2023-05-19T02:40:23;10.33;;;5.63;;
4317;SDS011;2172;53.576;9.934;2023-05-19T02:42:51;7.83;;;5.77;;
4317;SDS011;2172;53.576;9.934;2023-05-19T02:45:19;14.73;;;6.20;;
4317;SDS011;2172;53.576;9.934;2023-05-19T02:47:46;10.90;;;5.80;;
4317;SDS011;2172;53.576;9.934;2023-05-19T02:50:14;8.00;;;5.57;;
4317;SDS011;2172;53.576;9.934;2023-05-19T02:52:43;8.43;;;6.17;;
4317;SDS011;2172;53.576;9.934;2023-05-19T02:55:10;8.97;;;6.17;;
4317;SDS011;2172;53.576;9.934;2023-05-19T02:57:41;8.90;;;6.33;;
4317;SDS011;2172;53.576;9.934;2023-05-19T03:00:09;11.47;;;6.13;;
4317;SDS011;2172;53.576;9.934;2023-05-19T03:02:37;12.80;;;5.83;;
4317;SDS011;2172;53.576;9.934;2023-05-19T03:05:05;16.43;;;6.23;;
4317;SDS011;2172;53.576;9.934;2023-05-19T03:07:34;10.47;;;6.30;;
4317;SDS011;2172;53.576;9.934;2023-05-19T03:10:04;12.70;;;6.97;;
4317;SDS011;2172;53.576;9.934;2023-05-19T03:12:32;13.70;;;7.10;;
4317;SDS011;2172;53.576;9.934;2023-05-19T03:15:00;10.07;;;7.03;;
4317;SDS011;2172;53.576;9.934;2023-05-19T03:17:27;12.43;;;7.40;;
4317;SDS011;2172;53.576;9.934;2023-05-19T03:19:58;13.17;;;7.17;;
4317;SDS011;2172;53.576;9.934;2023-05-19T03:22:26;8.90;;;6.97;;
4317;SDS011;2172;53.576;9.934;2023-05-19T03:24:53;11.03;;;6.40;;
4317;SDS011;2172;53.576;9.934;2023-05-19T03:27:24;12.20;;;7.90;;
4317;SDS011;2172;53.576;9.934;2023-05-19T03:29:51;11.33;;;6.90;;
4317;SDS011;2172;53.576;9.934;2023-05-19T03:32:19;10.60;;;7.03;;
4317;SDS011;2172;53.576;9.934;2023-05-19T03:34:47;9.33;;;7.10;;
4317;SDS011;2172;53.576;9.934;2023-05-19T03:37:15;11.07;;;6.77;;
4317;SDS011;2172;53.576;9.934;2023-05-19T03:39:42;19.93;;;7.00;;
4317;SDS011;2172;53.576;9.934;2023-05-19T03:42:10;10.90;;;7.70;;
4317;SDS011;2172;53.576;9.934;2023-05-19T03:44:38;8.97;;;7.40;;
4317;SDS011;2172;53.576;9.934;2023-05-19T03:47:06;13.17;;;7.73;;
4317;SDS011;2172;53.576;9.934;2023-05-19T03:49:46;13.83;;;7.63;;
4317;SDS011;2172;53.576;9.934;2023-05-19T03:52:32;8.87;;;7.20;;
4317;SDS011;2172;53.576;9.934;2023-05-19T03:55:11;12.20;;;7.37;;
4317;SDS011;2172;53.576;9.934;2023-05-19T03:57:40;11.47;;;7.80;;
4317;SDS011;2172;53.576;9.934;2023-05-19T04:00:10;12.90;;;8.20;;
4317;SDS011;2172;53.576;9.934;2023-05-19T04:02:39;11.40;;;6.53;;
4317;SDS011;2172;53.576;9.934;2023-05-19T04:05:06;10.50;;;6.90;;
4317;SDS011;2172;53.576;9.934;2023-05-19T04:07:36;11.97;;;7.37;;
4317;SDS011;2172;53.576;9.934;2023-05-19T04:10:03;12.67;;;7.33;;
4317;SDS011;2172;53.576;9.934;2023-05-19T04:12:31;14.73;;;7.13;;
4317;SDS011;2172;53.576;9.934;2023-05-19T04:14:59;12.20;;;7.57;;
4317;SDS011;2172;53.576;9.934;2023-05-19T04:17:28;9.80;;;7.27;;
4317;SDS011;2172;53.576;9.934;2023-05-19T04:19:55;11.40;;;7.23;;
4317;SDS011;2172;53.576;9.934;2023-05-19T04:22:23;11.00;;;6.77;;
4317;SDS011;2172;53.576;9.934;2023-05-19T04:24:50;10.37;;;7.27;;
4317;SDS011;2172;53.576;9.934;2023-05-19T04:27:19;13.30;;;8.17;;
4317;SDS011;2172;53.576;9.934;2023-05-19T04:29:46;10.97;;;8.30;;
4317;SDS011;2172;53.576;9.934;2023-05-19T04:32:14;18.03;;;7.43;;
4317;SDS011;2172;53.576;9.934;2023-05-19T04:34:44;13.30;;;7.80;;
4317;SDS011;2172;53.576;9.934;2023-05-19T04:37:19;12.70;;;7.93;;
4317;SDS011;2172;53.576;9.934;2023-05-19T04:39:48;13.37;;;7.77;;
4317;SDS011;2172;53.576;9.934;2023-05-19T04:42:17;10.40;;;7.73;;
4317;SDS011;2172;53.576;9.934;2023-05-19T04:44:46;13.40;;;7.03;;
4317;SDS011;2172;53.576;9.934;2023-05-19T04:47:16;10.30;;;6.90;;
4317;SDS011;2172;53.576;9.934;2023-05-19T04:49:47;10.77;;;6.50;;
4317;SDS011;2172;53.576;9.934;2023-05-19T04:52:19;13.17;;;7.17;;
4317;SDS011;2172;53.576;9.934;2023-05-19T04:54:49;9.00;;;7.60;;
4317;SDS011;2172;53.576;9.934;2023-05-19T04:57:17;10.77;;;7.47;;
4317;SDS011;2172;53.576;9.934;2023-05-19T04:59:44;11.00;;;7.47;;
4317;SDS011;2172;53.576;9.934;2023-05-19T05:02:13;11.00;;;6.87;;
4317;SDS011;2172;53.576;9.934;2023-05-19T05:04:41;11.50;;;7.00;;
4317;SDS011;2172;53.576;9.934;2023-05-19T05:07:12;10.90;;;6.83;;
4317;SDS011;2172;53.576;9.934;2023-05-19T05:09:40;9.57;;;6.80;;
4317;SDS011;2172;53.576;9.934;2023-05-19T05:12:09;13.90;;;7.33;;
4317;SDS011;2172;53.576;9.934;2023-05-19T05:14:39;9.97;;;6.80;;
4317;SDS011;2172;53.576;9.934;2023-05-19T05:17:08;9.20;;;6.93;;
4317;SDS011;2172;53.576;9.934;2023-05-19T05:19:37;8.90;;;5.60;;
4317;SDS011;2172;53.576;9.934;2023-05-19T05:22:05;14.00;;;6.50;;
4317;SDS011;2172;53.576;9.934;2023-05-19T05:24:38;6.60;;;6.00;;
4317;SDS011;2172;53.576;9.934;2023-05-19T05:27:07;8.10;;;5.73;;
4317;SDS011;2172;53.576;9.934;2023-05-19T05:29:35;10.90;;;6.60;;
4317;SDS011;2172;53.576;9.934;2023-05-19T05:32:04;14.13;;;7.20;;
4317;SDS011;2172;53.576;9.934;2023-05-19T05:34:33;10.30;;;6.80;;
4317;SDS011;2172;53.576;9.934;2023-05-19T05:37:03;14.43;;;6.23;;
4317;SDS011;2172;53.576;9.934;2023-05-19T05:39:31;12.53;;;6.60;;
4317;SDS011;2172;53.576;9.934;2023-05-19T05:42:00;11.80;;;6.50;;
4317;SDS011;2172;53.576;9.934;2023-05-19T05:44:28;6.93;;;5.97;;
4317;SDS011;2172;53.576;9.934;2023-05-19T05:46:57;12.70;;;6.50;;
4317;SDS011;2172;53.576;9.934;2023-05-19T05:49:27;14.80;;;6.07;;
4317;SDS011;2172;53.576;9.934;2023-05-19T05:51:55;11.50;;;6.00;;
4317;SDS011;2172;53.576;9.934;2023-05-19T05:54:23;8.27;;;6.00;;
4317;SDS011;2172;53.576;9.934;2023-05-19T05:56:51;7.60;;;5.67;;
4317;SDS011;2172;53.576;9.934;2023-05-19T05:59:20;11.23;;;6.40;;
4317;SDS011;2172;53.576;9.934;2023-05-19T06:01:49;8.97;;;5.60;;
4317;SDS011;2172;53.576;9.934;2023-05-19T06:04:17;19.23;;;6.50;;
4317;SDS011;2172;53.576;9.934;2023-05-19T06:06:46;12.07;;;5.00;;
4317;SDS011;2172;53.576;9.934;2023-05-19T06:09:18;9.83;;;6.13;;
4317;SDS011;2172;53.576;9.934;2023-05-19T06:11:46;12.27;;;6.20;;
4317;SDS011;2172;53.576;9.934;2023-05-19T06:14:13;8.70;;;6.00;;
4317;SDS011;2172;53.576;9.934;2023-05-19T06:17:05;8.13;;;6.30;;
4317;SDS011;2172;53.576;9.934;2023-05-19T06:19:33;16.13;;;6.60;;
4317;SDS011;2172;53.576;9.934;2023-05-19T06:22:01;12.17;;;5.80;;
4317;SDS011;2172;53.576;9.934;2023-05-19T06:24:29;11.17;;;6.73;;
4317;SDS011;2172;53.576;9.934;2023-05-19T06:26:57;11.73;;;5.97;;
4317;SDS011;2172;53.576;9.934;2023-05-19T06:29:24;10.80;;;6.30;;
4317;SDS011;2172;53.576;9.934;2023-05-19T06:31:54;6.40;;;5.10;;
4317;SDS011;2172;53.576;9.934;2023-05-19T06:34:23;9.30;;;5.93;;
4317;SDS011;2172;53.576;9.934;2023-05-19T06:36:52;9.73;;;5.27;;
4317;SDS011;2172;53.576;9.934;2023-05-19T06:39:20;8.10;;;5.10;;
4317;SDS011;2172;53.576;9.934;2023-05-19T06:41:49;10.20;;;5.30;;
4317;SDS011;2172;53.576;9.934;2023-05-19T06:44:36;11.63;;;5.17;;
4317;SDS011;2172;53.576;9.934;2023-05-19T06:47:08;9.90;;;5.20;;
4317;SDS011;2172;53.576;9.934;2023-05-19T06:49:38;7.90;;;4.77;;
4317;SDS011;2172;53.576;9.934;2023-05-19T06:52:06;7.77;;;4.80;;
4317;SDS011;2172;53.576;9.934;2023-05-19T06:54:34;6.80;;;4.30;;
4317;SDS011;2172;53.576;9.934;2023-05-19T06:57:01;14.00;;;5.43;;
4317;SDS011;2172;53.576;9.934;2023-05-19T06:59:29;7.47;;;3.90;;
4317;SDS011;2172;53.576;9.934;2023-05-19T07:01:57;8.83;;;4.20;;
4317;SDS011;2172;53.576;9.934;2023-05-19T07:04:26;7.17;;;4.13;;
4317;SDS011;2172;53.576;9.934;2023-05-19T07:06:56;7.10;;;4.13;;
4317;SDS011;2172;53.576;9.934;2023-05-19T07:09:24;7.30;;;4.00;;
4317;SDS011;2172;53.576;9.934;2023-05-19T07:11:51;8.23;;;4.83;;
4317;SDS011;2172;53.576;9.934;2023-05-19T07:14:21;6.03;;;3.53;;
4317;SDS011;2172;53.576;9.934;2023-05-19T07:16:48;7.00;;;3.97;;
4317;SDS011;2172;53.576;9.934;2023-05-19T07:19:16;8.30;;;4.10;;
4317;SDS011;2172;53.576;9.934;2023-05-19T07:21:44;6.90;;;4.60;;
4317;SDS011;2172;53.576;9.934;2023-05-19T07:24:13;9.33;;;4.40;;
4317;SDS011;2172;53.576;9.934;2023-05-19T07:26:41;17.50;;;4.50;;
4317;SDS011;2172;53.576;9.934;2023-05-19T07:29:08;9.47;;;4.40;;
4317;SDS011;2172;53.576;9.934;2023-05-19T07:31:36;9.37;;;3.97;;
4317;SDS011;2172;53.576;9.934;2023-05-19T07:34:03;5.73;;;3.50;;
4317;SDS011;2172;53.576;9.934;2023-05-19T07:36:31;9.67;;;4.50;;
4317;SDS011;2172;53.576;9.934;2023-05-19T07:38:58;9.27;;;3.97;;
4317;SDS011;2172;53.576;9.934;2023-05-19T07:41:27;7.17;;;3.73;;
4317;SDS011;2172;53.576;9.934;2023-05-19T07:43:56;10.80;;;4.20;;
4317;SDS011;2172;53.576;9.934;2023-05-19T07:46:23;7.67;;;4.37;;
4317;SDS011;2172;53.576;9.934;2023-05-19T07:48:51;5.70;;;3.80;;
4317;SDS011;2172;53.576;9.934;2023-05-19T07:51:18;7.80;;;3.33;;
4317;SDS011;2172;53.576;9.934;2023-05-19T07:53:45;9.60;;;4.33;;
4317;SDS011;2172;53.576;9.934;2023-05-19T07:56:16;7.23;;;3.97;;
4317;SDS011;2172;53.576;9.934;2023-05-19T07:58:45;6.87;;;3.40;;
4317;SDS011;2172;53.576;9.934;2023-05-19T08:01:12;6.30;;;3.80;;
4317;SDS011;2172;53.576;9.934;2023-05-19T08:03:40;7.63;;;3.33;;
4317;SDS011;2172;53.576;9.934;2023-05-19T08:06:07;7.77;;;3.97;;
4317;SDS011;2172;53.576;9.934;2023-05-19T08:08:34;7.10;;;3.40;;
4317;SDS011;2172;53.576;9.934;2023-05-19T08:11:02;5.20;;;3.73;;
4317;SDS011;2172;53.576;9.934;2023-05-19T08:13:31;9.27;;;3.80;;
4317;SDS011;2172;53.576;9.934;2023-05-19T08:16:00;8.70;;;3.57;;
4317;SDS011;2172;53.576;9.934;2023-05-19T08:18:28;7.00;;;3.33;;
4317;SDS011;2172;53.576;9.934;2023-05-19T08:20:55;9.83;;;3.90;;
4317;SDS011;2172;53.576;9.934;2023-05-19T08:23:24;7.10;;;4.00;;
4317;SDS011;2172;53.576;9.934;2023-05-19T08:25:51;6.53;;;3.70;;
4317;SDS011;2172;53.576;9.934;2023-05-19T08:28:19;7.33;;;3.60;;
4317;SDS011;2172;53.576;9.934;2023-05-19T08:30:46;8.30;;;3.80;;
4317;SDS011;2172;53.576;9.934;2023-05-19T08:33:17;9.20;;;4.20;;
4317;SDS011;2172;53.576;9.934;2023-05-19T08:35:45;9.50;;;3.80;;
4317;SDS011;2172;53.576;9.934;2023-05-19T08:38:13;6.33;;;3.30;;
4317;SDS011;2172;53.576;9.934;2023-05-19T08:40:41;6.40;;;3.37;;
4317;SDS011;2172;53.576;9.934;2023-05-19T08:43:10;7.13;;;3.33;;
4317;SDS011;2172;53.576;9.934;2023-05-19T08:45:38;9.23;;;4.00;;
4317;SDS011;2172;53.576;9.934;2023-05-19T08:48:07;11.00;;;3.63;;
4317;SDS011;2172;53.576;9.934;2023-05-19T08:50:37;9.70;;;4.03;;
4317;SDS011;2172;53.576;9.934;2023-05-19T08:53:07;8.80;;;3.40;;
4317;SDS011;2172;53.576;9.934;2023-05-19T08:55:39;8.50;;;3.83;;
4317;SDS011;2172;53.576;9.934;2023-05-19T08:58:09;5.50;;;3.00;;
4317;SDS011;2172;53.576;9.934;2023-05-19T09:00:37;9.00;;;2.93;;
4317;SDS011;2172;53.576;9.934;2023-05-19T09:03:05;4.70;;;2.70;;
4317;SDS011;2172;53.576;9.934;2023-05-19T09:05:33;6.20;;;3.50;;
4317;SDS011;2172;53.576;9.934;2023-05-19T09:08:02;7.90;;;3.30;;
4317;SDS011;2172;53.576;9.934;2023-05-19T09:10:30;7.53;;;3.60;;
4317;SDS011;2172;53.576;9.934;2023-05-19T09:12:58;5.00;;;2.97;;
4317;SDS011;2172;53.576;9.934;2023-05-19T09:15:26;6.67;;;2.77;;
4317;SDS011;2172;53.576;9.934;2023-05-19T09:18:02;6.20;;;3.17;;
4317;SDS011;2172;53.576;9.934;2023-05-19T09:20:36;8.70;;;3.30;;
4317;SDS011;2172;53.576;9.934;2023-05-19T09:23:05;7.57;;;3.20;;
4317;SDS011;2172;53.576;9.934;2023-05-19T09:25:33;8.27;;;3.30;;
4317;SDS011;2172;53.576;9.934;2023-05-19T09:28:01;9.90;;;3.47;;
4317;SDS011;2172;53.576;9.934;2023-05-19T09:30:28;7.30;;;3.13;;
4317;SDS011;2172;53.576;9.934;2023-05-19T09:32:56;4.40;;;2.90;;
4317;SDS011;2172;53.576;9.934;2023-05-19T09:35:23;5.10;;;3.00;;
4317;SDS011;2172;53.576;9.934;2023-05-19T09:37:52;7.53;;;3.20;;
4317;SDS011;2172;53.576;9.934;2023-05-19T09:40:21;7.63;;;3.23;;
4317;SDS011;2172;53.576;9.934;2023-05-19T09:42:53;6.60;;;2.93;;
4317;SDS011;2172;53.576;9.934;2023-05-19T09:45:21;5.97;;;2.87;;
4317;SDS011;2172;53.576;9.934;2023-05-19T09:47:49;8.37;;;3.47;;
4317;SDS011;2172;53.576;9.934;2023-05-19T09:50:16;9.13;;;3.40;;
4317;SDS011;2172;53.576;9.934;2023-05-19T09:52:44;7.67;;;2.93;;
4317;SDS011;2172;53.576;9.934;2023-05-19T09:55:12;6.63;;;3.17;;
4317;SDS011;2172;53.576;9.934;2023-05-19T09:57:40;4.23;;;2.37;;
4317;SDS011;2172;53.576;9.934;2023-05-19T10:00:10;7.23;;;3.37;;
4317;SDS011;2172;53.576;9.934;2023-05-19T10:02:39;5.80;;;2.73;;
4317;SDS011;2172;53.576;9.934;2023-05-19T10:05:12;5.80;;;2.50;;
4317;SDS011;2172;53.576;9.934;2023-05-19T10:07:59;5.00;;;2.73;;
4317;SDS011;2172;53.576;9.934;2023-05-19T10:10:32;6.70;;;3.20;;
4317;SDS011;2172;53.576;9.934;2023-05-19T10:12:59;5.43;;;2.77;;
4317;SDS011;2172;53.576;9.934;2023-05-19T10:15:28;4.90;;;3.03;;
4317;SDS011;2172;53.576;9.934;2023-05-19T10:17:56;6.80;;;3.30;;
4317;SDS011;2172;53.576;9.934;2023-05-19T10:20:23;6.30;;;2.87;;
4317;SDS011;2172;53.576;9.934;2023-05-19T10:22:52;4.80;;;3.17;;
4317;SDS011;2172;53.576;9.934;2023-05-19T10:25:20;7.33;;;3.33;;
4317;SDS011;2172;53.576;9.934;2023-05-19T10:27:50;6.43;;;3.70;;
4317;SDS011;2172;53.576;9.934;2023-05-19T10:30:22;5.83;;;2.87;;
4317;SDS011;2172;53.576;9.934;2023-05-19T10:32:52;6.30;;;2.90;;
4317;SDS011;2172;53.576;9.934;2023-05-19T10:38:17;4.93;;;2.87;;
4317;SDS011;2172;53.576;9.934;2023-05-19T10:40:52;6.53;;;2.83;;
4317;SDS011;2172;53.576;9.934;2023-05-19T10:43:28;6.53;;;2.90;;
4317;SDS011;2172;53.576;9.934;2023-05-19T10:46:01;4.60;;;2.67;;
4317;SDS011;2172;53.576;9.934;2023-05-19T10:48:31;9.03;;;2.60;;
4317;SDS011;2172;53.576;9.934;2023-05-19T10:51:00;6.70;;;2.90;;
4317;SDS011;2172;53.576;9.934;2023-05-19T10:53:29;9.03;;;3.20;;
4317;SDS011;2172;53.576;9.934;2023-05-19T10:55:58;5.60;;;2.70;;
4317;SDS011;2172;53.576;9.934;2023-05-19T11:01:16;7.17;;;2.90;;
4317;SDS011;2172;53.576;9.934;2023-05-19T11:03:45;7.00;;;3.10;;
4317;SDS011;2172;53.576;9.934;2023-05-19T11:06:20;4.83;;;2.67;;
4317;SDS011;2172;53.576;9.934;2023-05-19T11:08:52;4.63;;;2.73;;
4317;SDS011;2172;53.576;9.934;2023-05-19T11:11:25;6.03;;;2.73;;
4317;SDS011;2172;53.576;9.934;2023-05-19T11:13:54;4.10;;;2.47;;
4317;SDS011;2172;53.576;9.934;2023-05-19T11:16:25;5.00;;;3.07;;
4317;SDS011;2172;53.576;9.934;2023-05-19T11:18:54;6.53;;;3.23;;
4317;SDS011;2172;53.576;9.934;2023-05-19T11:21:21;6.77;;;3.00;;
4317;SDS011;2172;53.576;9.934;2023-05-19T11:23:50;5.50;;;3.03;;
4317;SDS011;2172;53.576;9.934;2023-05-19T11:29:09;8.60;;;2.57;;
4317;SDS011;2172;53.576;9.934;2023-05-19T11:31:37;4.97;;;2.70;;
4317;SDS011;2172;53.576;9.934;2023-05-19T11:34:05;5.27;;;2.60;;
4317;SDS011;2172;53.576;9.934;2023-05-19T11:36:33;5.90;;;3.10;;
4317;SDS011;2172;53.576;9.934;2023-05-19T11:39:03;6.93;;;2.70;;
4317;SDS011;2172;53.576;9.934;2023-05-19T11:41:31;11.73;;;3.90;;
4317;SDS011;2172;53.576;9.934;2023-05-19T11:43:58;6.40;;;2.60;;
4317;SDS011;2172;53.576;9.934;2023-05-19T11:46:27;5.20;;;2.90;;
4317;SDS011;2172;53.576;9.934;2023-05-19T11:48:55;5.67;;;2.37;;
4317;SDS011;2172;53.576;9.934;2023-05-19T11:51:23;6.57;;;2.50;;
4317;SDS011;2172;53.576;9.934;2023-05-19T11:53:51;4.13;;;2.50;;
4317;SDS011;2172;53.576;9.934;2023-05-19T11:56:18;5.50;;;2.63;;
4317;SDS011;2172;53.576;9.934;2023-05-19T11:58:46;5.20;;;2.63;;
4317;SDS011;2172;53.576;9.934;2023-05-19T12:01:14;5.53;;;2.80;;
4317;SDS011;2172;53.576;9.934;2023-05-19T12:03:43;7.13;;;2.40;;
4317;SDS011;2172;53.576;9.934;2023-05-19T12:06:10;4.20;;;2.63;;
4317;SDS011;2172;53.576;9.934;2023-05-19T12:08:41;5.60;;;2.77;;
4317;SDS011;2172;53.576;9.934;2023-05-19T12:11:09;3.60;;;2.37;;
4317;SDS011;2172;53.576;9.934;2023-05-19T12:13:37;5.93;;;2.80;;
4317;SDS011;2172;53.576;9.934;2023-05-19T12:16:05;4.70;;;2.17;;
4317;SDS011;2172;53.576;9.934;2023-05-19T12:18:35;4.90;;;2.90;;
4317;SDS011;2172;53.576;9.934;2023-05-19T12:21:04;4.70;;;2.80;;
4317;SDS011;2172;53.576;9.934;2023-05-19T12:23:32;6.23;;;2.67;;
4317;SDS011;2172;53.576;9.934;2023-05-19T12:26:00;5.37;;;2.17;;
4317;SDS011;2172;53.576;9.934;2023-05-19T12:28:29;4.03;;;2.60;;
4317;SDS011;2172;53.576;9.934;2023-05-19T12:30:56;3.93;;;2.57;;
4317;SDS011;2172;53.576;9.934;2023-05-19T12:33:24;7.63;;;2.83;;
4317;SDS011;2172;53.576;9.934;2023-05-19T12:35:52;5.43;;;2.63;;
4317;SDS011;2172;53.576;9.934;2023-05-19T12:38:22;4.47;;;2.60;;
4317;SDS011;2172;53.576;9.934;2023-05-19T12:40:49;4.90;;;2.87;;
4317;SDS011;2172;53.576;9.934;2023-05-19T12:43:20;7.20;;;3.00;;
4317;SDS011;2172;53.576;9.934;2023-05-19T12:45:48;3.87;;;2.40;;
4317;SDS011;2172;53.576;9.934;2023-05-19T12:48:16;3.23;;;2.57;;
4317;SDS011;2172;53.576;9.934;2023-05-19T12:50:46;5.80;;;2.60;;
4317;SDS011;2172;53.576;9.934;2023-05-19T12:53:14;4.33;;;2.70;;
4317;SDS011;2172;53.576;9.934;2023-05-19T12:55:43;8.20;;;3.03;;
4317;SDS011;2172;53.576;9.934;2023-05-19T12:58:11;4.60;;;2.80;;
4317;SDS011;2172;53.576;9.934;2023-05-19T13:00:40;4.37;;;3.07;;
4317;SDS011;2172;53.576;9.934;2023-05-19T13:03:13;9.00;;;3.20;;
4317;SDS011;2172;53.576;9.934;2023-05-19T13:05:41;5.40;;;3.33;;
4317;SDS011;2172;53.576;9.934;2023-05-19T13:08:11;4.77;;;3.13;;
4317;SDS011;2172;53.576;9.934;2023-05-19T13:10:40;4.27;;;2.70;;
4317;SDS011;2172;53.576;9.934;2023-05-19T13:13:10;4.20;;;2.40;;
4317;SDS011;2172;53.576;9.934;2023-05-19T13:15:39;5.83;;;2.50;;
4317;SDS011;2172;53.576;9.934;2023-05-19T13:18:08;9.53;;;2.67;;
4317;SDS011;2172;53.576;9.934;2023-05-19T13:20:37;4.23;;;2.80;;
4317;SDS011;2172;53.576;9.934;2023-05-19T13:23:05;9.13;;;2.77;;
4317;SDS011;2172;53.576;9.934;2023-05-19T13:25:34;4.77;;;2.40;;
4317;SDS011;2172;53.576;9.934;2023-05-19T13:28:02;5.70;;;2.63;;
4317;SDS011;2172;53.576;9.934;2023-05-19T13:30:32;6.87;;;3.03;;
4317;SDS011;2172;53.576;9.934;2023-05-19T13:33:00;3.50;;;2.37;;
4317;SDS011;2172;53.576;9.934;2023-05-19T13:35:28;7.43;;;2.60;;
4317;SDS011;2172;53.576;9.934;2023-05-19T13:38:01;6.53;;;2.77;;
4317;SDS011;2172;53.576;9.934;2023-05-19T13:40:29;4.57;;;2.47;;
4317;SDS011;2172;53.576;9.934;2023-05-19T13:42:59;5.00;;;2.40;;
4317;SDS011;2172;53.576;9.934;2023-05-19T13:45:26;5.90;;;2.53;;
4317;SDS011;2172;53.576;9.934;2023-05-19T13:47:55;15.83;;;2.70;;
4317;SDS011;2172;53.576;9.934;2023-05-19T13:50:24;4.37;;;3.10;;
4317;SDS011;2172;53.576;9.934;2023-05-19T13:52:51;6.97;;;2.70;;
4317;SDS011;2172;53.576;9.934;2023-05-19T13:55:19;4.90;;;2.63;;
4317;SDS011;2172;53.576;9.934;2023-05-19T13:57:47;4.30;;;2.60;;
4317;SDS011;2172;53.576;9.934;2023-05-19T14:00:15;6.53;;;2.50;;
4317;SDS011;2172;53.576;9.934;2023-05-19T14:02:44;4.17;;;2.80;;
4317;SDS011;2172;53.576;9.934;2023-05-19T14:05:13;5.10;;;2.73;;
4317;SDS011;2172;53.576;9.934;2023-05-19T14:07:40;3.67;;;2.37;;
4317;SDS011;2172;53.576;9.934;2023-05-19T14:10:08;3.70;;;2.57;;
4317;SDS011;2172;53.576;9.934;2023-05-19T14:12:36;6.67;;;3.03;;
4317;SDS011;2172;53.576;9.934;2023-05-19T14:15:04;6.33;;;2.70;;
4317;SDS011;2172;53.576;9.934;2023-05-19T14:17:34;6.30;;;2.80;;
4317;SDS011;2172;53.576;9.934;2023-05-19T14:20:02;5.53;;;3.47;;
4317;SDS011;2172;53.576;9.934;2023-05-19T14:22:31;4.80;;;2.57;;
4317;SDS011;2172;53.576;9.934;2023-05-19T14:24:59;3.93;;;3.23;;
4317;SDS011;2172;53.576;9.934;2023-05-19T14:27:26;3.60;;;2.30;;
4317;SDS011;2172;53.576;9.934;2023-05-19T14:29:54;5.70;;;2.50;;
4317;SDS011;2172;53.576;9.934;2023-05-19T14:32:21;6.47;;;2.90;;
4317;SDS011;2172;53.576;9.934;2023-05-19T14:34:49;5.23;;;2.50;;
4317;SDS011;2172;53.576;9.934;2023-05-19T14:37:17;6.60;;;2.70;;
4317;SDS011;2172;53.576;9.934;2023-05-19T14:39:46;6.07;;;2.50;;
4317;SDS011;2172;53.576;9.934;2023-05-19T14:42:13;3.30;;;3.00;;
4317;SDS011;2172;53.576;9.934;2023-05-19T14:44:41;4.70;;;2.70;;
4317;SDS011;2172;53.576;9.934;2023-05-19T14:47:09;6.37;;;2.47;;
4317;SDS011;2172;53.576;9.934;2023-05-19T14:49:36;5.87;;;2.93;;
4317;SDS011;2172;53.576;9.934;2023-05-19T14:52:04;5.83;;;2.80;;
4317;SDS011;2172;53.576;9.934;2023-05-19T14:54:32;5.13;;;3.20;;
4317;SDS011;2172;53.576;9.934;2023-05-19T14:57:01;4.63;;;2.63;;
4317;SDS011;2172;53.576;9.934;2023-05-19T14:59:28;4.33;;;2.40;;
4317;SDS011;2172;53.576;9.934;2023-05-19T15:01:56;6.70;;;2.43;;
4317;SDS011;2172;53.576;9.934;2023-05-19T15:04:24;5.63;;;2.93;;
4317;SDS011;2172;53.576;9.934;2023-05-19T15:06:54;5.07;;;2.40;;
4317;SDS011;2172;53.576;9.934;2023-05-19T15:09:23;4.70;;;3.03;;
4317;SDS011;2172;53.576;9.934;2023-05-19T15:11:50;6.07;;;3.03;;
4317;SDS011;2172;53.576;9.934;2023-05-19T15:14:19;3.27;;;2.97;;
4317;SDS011;2172;53.576;9.934;2023-05-19T15:16:47;4.90;;;2.47;;
4317;SDS011;2172;53.576;9.934;2023-05-19T15:19:15;4.07;;;2.40;;
4317;SDS011;2172;53.576;9.934;2023-05-19T15:21:43;3.50;;;2.13;;
4317;SDS011;2172;53.576;9.934;2023-05-19T15:24:10;5.67;;;2.80;;
4317;SDS011;2172;53.576;9.934;2023-05-19T15:26:38;5.53;;;2.87;;
4317;SDS011;2172;53.576;9.934;2023-05-19T15:29:05;4.13;;;2.40;;
4317;SDS011;2172;53.576;9.934;2023-05-19T15:31:34;6.93;;;2.63;;
4317;SDS011;2172;53.576;9.934;2023-05-19T15:34:02;5.10;;;2.53;;
4317;SDS011;2172;53.576;9.934;2023-05-19T15:36:29;5.20;;;2.13;;